TimeEST,TemperatureF,Dew PointF,Humidity,Sea Level PressureIn,VisibilityMPH,Wind Direction,Wind SpeedMPH,Gust SpeedMPH,PrecipitationIn,Events,Conditions,WindDirDegrees,DateUTC
12:53 AM,24.1,19.9,84,29.99,10.0,North,11.5,-,0.00,,Overcast,360,2013-01-26 05:53:00
1:53 AM,23.0,19.9,88,29.99,3.0,North,11.5,-,0.00,Snow,Light Snow,360,2013-01-26 06:53:00
2:16 AM,23.0,19.4,86,29.98,2.5,North,10.4,-,0.00,Snow,Light Snow,350,2013-01-26 07:16:00
2:30 AM,23.0,19.4,86,29.98,2.5,North,10.4,-,0.00,Snow,Light Snow,350,2013-01-26 07:30:00
2:43 AM,23.0,21.2,93,29.97,3.0,North,9.2,-,0.00,Snow,Light Snow,360,2013-01-26 07:43:00
2:53 AM,23.0,21.0,92,29.97,4.0,North,10.4,-,0.00,Snow,Light Snow,360,2013-01-26 07:53:00
3:09 AM,24.8,21.2,86,29.96,2.0,North,9.2,-,0.00,Snow,Light Snow,350,2013-01-26 08:09:00
3:24 AM,24.8,21.2,86,29.96,2.5,NNW,9.2,-,0.00,Snow,Light Snow,340,2013-01-26 08:24:00
3:26 AM,24.8,21.2,86,29.96,3.0,NNW,8.1,-,0.00,Snow,Light Snow,340,2013-01-26 08:26:00
3:53 AM,24.1,21.0,88,29.96,3.0,NNW,9.2,-,0.00,Snow,Light Snow,340,2013-01-26 08:53:00
4:53 AM,24.1,21.0,88,29.96,5.0,NNW,9.2,-,0.00,Snow,Light Snow,330,2013-01-26 09:53:00
5:43 AM,24.8,21.2,86,29.96,10.0,NW,10.4,-,0.00,,Overcast,320,2013-01-26 10:43:00
5:50 AM,23.0,19.4,86,29.96,10.0,NW,10.4,-,0.00,,Overcast,320,2013-01-26 10:50:00
5:53 AM,23.0,19.9,88,29.96,10.0,NW,8.1,-,0.00,,Overcast,320,2013-01-26 10:53:00
6:14 AM,23.0,19.4,86,29.97,6.0,NNW,10.4,-,0.00,Snow,Light Snow,330,2013-01-26 11:14:00
7:53 AM,21.9,19.0,89,29.98,10.0,NNW,13.8,-,0.00,,Mostly Cloudy,330,2013-01-26 12:53:00
8:13 AM,23.0,17.6,80,29.98,10.0,NNW,11.5,-,N/A,,Scattered Clouds,330,2013-01-26 13:13:00
8:53 AM,23.0,18.0,81,29.99,10.0,NW,17.3,-,N/A,,Partly Cloudy,320,2013-01-26 13:53:00
9:53 AM,23.0,18.0,81,30.00,10.0,NW,15.0,-,N/A,,Scattered Clouds,320,2013-01-26 14:53:00
10:53 AM,23.0,18.0,81,30.01,10.0,NW,18.4,-,N/A,,Scattered Clouds,320,2013-01-26 15:53:00
11:53 AM,24.1,19.0,81,29.99,10.0,NW,16.1,-,N/A,,Partly Cloudy,320,2013-01-26 16:53:00
12:53 PM,25.0,18.0,75,29.99,10.0,NNW,15.0,-,N/A,,Mostly Cloudy,330,2013-01-26 17:53:00
1:53 PM,25.0,16.0,69,29.99,10.0,NW,16.1,-,N/A,,Partly Cloudy,320,2013-01-26 18:53:00
2:53 PM,25.0,12.9,60,30.01,10.0,WNW,15.0,-,N/A,,Clear,290,2013-01-26 19:53:00
3:53 PM,25.0,12.0,58,30.02,10.0,NW,12.7,-,N/A,,Clear,310,2013-01-26 20:53:00
4:53 PM,24.1,9.0,53,30.05,10.0,NW,10.4,21.9,N/A,,Clear,310,2013-01-26 21:53:00
5:53 PM,24.1,7.0,48,30.07,10.0,NW,15.0,-,N/A,,Clear,310,2013-01-26 22:53:00
6:53 PM,23.0,3.0,42,30.09,10.0,NW,17.3,-,N/A,,Clear,310,2013-01-26 23:53:00
7:53 PM,21.9,1.9,42,30.11,10.0,NW,17.3,23.0,N/A,,Scattered Clouds,320,2013-01-27 00:53:00
8:53 PM,21.9,1.0,40,30.12,10.0,NNW,17.3,24.2,N/A,,Overcast,330,2013-01-27 01:53:00
9:53 PM,19.9,1.0,44,30.14,10.0,NW,18.4,29.9,N/A,,Mostly Cloudy,310,2013-01-27 02:53:00
10:53 PM,19.0,1.0,46,30.18,10.0,NW,24.2,32.2,N/A,,Clear,320,2013-01-27 03:53:00
11:53 PM,18.0,1.9,50,30.19,10.0,NW,21.9,33.4,N/A,,Clear,320,2013-01-27 04:53:00